Time;durP1;ratioP1;P1;durP2;ratioP2;P2;SDS_P1;SDS_P2;PMS_P1;PMS_P2;Temp;Humidity;BMP_temperature;BMP_pressure;BME280_temperature;BME280_humidity;BME280_pressure;Samples;Min_cycle;Max_cycle;Signal;HPM_P1;HPM_P2
2022/11/07 00:00:09;;;;;;;68.43;27.77;;;;;;;3.81;100.00;100114.81;4243783;28;20676;-71
2022/11/07 00:02:35;;;;;;;67.03;27.63;;;;;;;3.92;100.00;100115.84;4253978;28;20243;-73
2022/11/07 00:05:02;;;;;;;61.97;26.90;;;;;;;3.96;100.00;100109.44;4247216;28;20896;-73
2022/11/07 00:07:29;;;;;;;62.53;28.10;;;;;;;3.89;100.00;100105.56;4235356;28;20237;-71
2022/11/07 00:09:55;;;;;;;69.63;28.97;;;;;;;3.97;100.00;100104.03;4249129;28;20507;-72
2022/11/07 00:12:22;;;;;;;74.90;28.83;;;;;;;3.95;100.00;100105.09;4249389;28;21349;-71
2022/11/07 00:14:48;;;;;;;64.83;28.23;;;;;;;3.96;100.00;100101.53;4249435;28;20313;-72
2022/11/07 00:17:17;;;;;;;75.03;29.83;;;;;;;3.95;100.00;100110.34;4251352;28;20405;-72
2022/11/07 00:19:43;;;;;;;75.43;30.37;;;;;;;3.88;100.00;100098.59;4249719;28;23498;-71
2022/11/07 00:22:09;;;;;;;72.43;31.33;;;;;;;3.96;100.00;100091.84;4250209;28;20634;-73
2022/11/07 00:24:36;;;;;;;69.30;30.60;;;;;;;3.97;100.00;100092.66;4246025;28;20649;-72
2022/11/07 00:27:02;;;;;;;74.20;30.47;;;;;;;4.01;100.00;100088.88;4238246;28;20306;-72
2022/11/07 00:29:29;;;;;;;71.50;30.67;;;;;;;4.00;100.00;100079.28;4255288;28;22926;-73
2022/11/07 00:31:55;;;;;;;77.60;30.87;;;;;;;4.01;100.00;100067.81;4243264;28;22159;-70
2022/11/07 00:34:22;;;;;;;69.03;31.40;;;;;;;4.09;100.00;100068.06;4243597;28;20444;-73
2022/11/07 00:36:48;;;;;;;71.33;29.83;;;;;;;4.23;100.00;100062.63;4250795;28;21786;-71
2022/11/07 00:39:15;;;;;;;67.70;28.40;;;;;;;4.28;100.00;100057.00;4244245;28;20266;-72
2022/11/07 00:41:42;;;;;;;64.27;28.13;;;;;;;4.32;100.00;100060.28;4224199;28;20248;-74
2022/11/07 00:44:08;;;;;;;70.63;29.03;;;;;;;4.40;100.00;100050.84;4259420;28;20625;-71
2022/11/07 00:46:35;;;;;;;62.03;27.47;;;;;;;4.41;100.00;100055.16;4247621;28;20629;-72
2022/11/07 00:49:01;;;;;;;70.43;27.97;;;;;;;4.44;100.00;100038.28;4243776;28;20409;-72
2022/11/07 00:51:28;;;;;;;63.40;26.07;;;;;;;4.59;100.00;100041.56;4253054;28;20229;-72
2022/11/07 00:53:54;;;;;;;62.20;26.40;;;;;;;4.67;100.00;100036.53;4241082;28;20380;-74
2022/11/07 00:56:23;;;;;;;59.83;25.23;;;;;;;4.78;100.00;100033.09;4245212;28;20243;-72
2022/11/07 00:58:54;;;;;;;62.10;26.37;;;;;;;4.74;100.00;100029.00;4249500;28;21190;-74
2022/11/07 01:01:23;;;;;;;62.37;26.40;;;;;;;4.81;100.00;100030.22;4257195;28;25989;-73
2022/11/07 01:06:38;;;;;;;52.67;23.63;;;;;;;5.00;100.00;100025.19;4243119;28;20363;-71
2022/11/07 01:09:10;;;;;;;51.90;22.50;;;;;;;5.02;100.00;100031.19;4252025;28;20249;-73
2022/11/07 01:11:38;;;;;;;53.80;22.57;;;;;;;5.19;100.00;100039.56;4247377;28;22074;-71
2022/11/07 01:14:05;;;;;;;52.87;23.40;;;;;;;5.13;100.00;100034.78;4247303;28;20538;-72
2022/11/07 01:16:34;;;;;;;50.47;22.43;;;;;;;5.16;100.00;100034.56;4253201;28;23737;-70
2022/11/07 01:19:01;;;;;;;48.77;22.17;;;;;;;5.21;100.00;100037.66;4257082;28;20238;-70
2022/11/07 01:21:28;;;;;;;50.80;22.93;;;;;;;5.07;100.00;100038.75;4242131;28;20316;-71
2022/11/07 01:23:55;;;;;;;47.90;23.10;;;;;;;5.17;100.00;100044.13;4242437;28;22094;-71
2022/11/07 01:26:21;;;;;;;52.20;22.77;;;;;;;5.17;100.00;100036.22;4248321;28;20225;-71
2022/11/07 01:28:48;;;;;;;43.83;21.20;;;;;;;5.32;100.00;100044.75;4234061;28;20330;-74
2022/11/07 01:31:15;;;;;;;52.57;22.03;;;;;;;5.43;100.00;100048.22;4240751;28;20788;-70
2022/11/07 01:33:42;;;;;;;44.10;21.10;;;;;;;5.43;100.00;100040.28;4244426;28;20264;-73
2022/11/07 01:36:11;;;;;;;42.40;20.87;;;;;;;5.58;100.00;100034.75;4248815;28;20236;-71
2022/11/07 01:38:39;;;;;;;45.63;21.07;;;;;;;5.61;100.00;100034.50;4247757;28;25318;-72
2022/11/07 01:41:20;;;;;;;51.60;21.60;;;;;;;5.55;100.00;100037.63;4251829;28;20236;-74
2022/11/07 01:43:57;;;;;;;44.20;20.97;;;;;;;5.57;100.00;100035.69;4258787;28;20250;-73
2022/11/07 01:46:28;;;;;;;45.73;20.97;;;;;;;5.58;100.00;100032.13;4246260;28;21191;-73
2022/11/07 01:49:10;;;;;;;48.73;22.37;;;;;;;5.47;100.00;100032.97;4247491;28;20300;-75
2022/11/07 01:51:44;;;;;;;53.70;22.47;;;;;;;5.58;100.00;100025.03;4235848;28;20243;-72
2022/11/07 01:54:12;;;;;;;48.40;21.30;;;;;;;5.44;100.00;100028.75;4234037;28;20613;-76
2022/11/07 01:56:41;;;;;;;53.40;22.50;;;;;;;5.45;100.00;100022.50;4232001;28;20247;-75
2022/11/07 01:59:09;;;;;;;52.80;21.77;;;;;;;5.42;100.00;100017.50;4245070;28;20239;-73
2022/11/07 02:01:36;;;;;;;50.67;22.90;;;;;;;5.45;100.00;100014.59;4243263;28;20314;-71
2022/11/07 02:04:03;;;;;;;49.10;21.87;;;;;;;5.44;100.00;100018.22;4245396;28;21192;-71
2022/11/07 02:06:38;;;;;;;50.97;22.97;;;;;;;5.41;100.00;100017.63;4238533;28;21175;-74
2022/11/07 02:09:05;;;;;;;52.97;23.07;;;;;;;5.35;100.00;100013.66;4245711;28;20277;-73
2022/11/07 02:11:32;;;;;;;54.50;23.13;;;;;;;5.48;100.00;100009.09;4229982;28;20318;-72
2022/11/07 02:13:58;;;;;;;57.20;24.70;;;;;;;5.39;100.00;99996.63;4251429;28;21103;-77
2022/11/07 02:16:26;;;;;;;51.47;23.10;;;;;;;5.35;100.00;100000.47;4238728;28;20231;-71
2022/11/07 02:18:53;;;;;;;62.30;24.47;;;;;;;5.40;100.00;100002.75;4241935;28;20309;-74
2022/11/07 02:21:35;;;;;;;59.93;25.47;;;;;;;5.28;100.00;99988.72;4238564;28;21246;-73
2022/11/07 02:24:07;;;;;;;60.30;25.90;;;;;;;5.25;100.00;99986.34;4223567;28;20231;-72
2022/11/07 02:26:35;;;;;;;55.83;25.23;;;;;;;5.32;100.00;99987.53;4245025;28;20293;-71
2022/11/07 02:29:07;;;;;;;62.67;25.77;;;;;;;5.21;100.00;99974.34;4246079;28;20294;-72
2022/11/07 02:31:34;;;;;;;56.43;26.20;;;;;;;5.20;100.00;99977.97;4250112;28;20230;-74
2022/11/07 02:34:28;;;;;;;54.97;26.83;;;;;;;5.23;100.00;99968.00;4235461;28;22863;-74
2022/11/07 02:36:55;;;;;;;60.27;26.83;;;;;;;5.32;100.00;99970.88;4203744;28;20324;-75
2022/11/07 02:39:22;;;;;;;60.87;26.57;;;;;;;5.26;100.00;99951.91;4191217;28;21764;-75
2022/11/07 02:41:49;;;;;;;59.47;26.90;;;;;;;5.21;100.00;99942.69;4206244;28;20231;-75
2022/11/07 02:44:16;;;;;;;60.60;27.43;;;;;;;5.16;100.00;99929.06;4197808;28;20586;-73
2022/11/07 02:46:42;;;;;;;62.63;28.63;;;;;;;5.15;100.00;99927.34;4198825;28;20236;-74
2022/11/07 02:49:08;;;;;;;67.80;30.27;;;;;;;5.14;100.00;99923.88;4196120;28;20653;-75
2022/11/07 02:51:35;;;;;;;68.80;29.67;;;;;;;5.15;100.00;99916.81;4200666;28;20232;-73
2022/11/07 02:54:02;;;;;;;65.37;28.77;;;;;;;5.34;100.00;99922.31;4201884;28;20233;-73
2022/11/07 02:56:28;;;;;;;70.23;29.13;;;;;;;5.34;100.00;99926.72;4198631;28;20247;-69
2022/11/07 02:58:55;;;;;;;65.00;28.93;;;;;;;5.39;100.00;99919.28;4199318;28;20233;-70
2022/11/07 03:01:21;;;;;;;65.90;29.50;;;;;;;5.47;100.00;99935.31;4202377;28;20567;-70
2022/11/07 03:03:49;;;;;;;75.77;31.40;;;;;;;5.52;100.00;99929.66;4202513;28;20262;-72
2022/11/07 03:06:18;;;;;;;74.43;29.53;;;;;;;5.55;100.00;99908.28;4188640;28;21330;-71
2022/11/07 03:08:45;;;;;;;64.27;29.60;;;;;;;5.54;100.00;99912.75;4201342;28;21582;-69
2022/11/07 03:11:12;;;;;;;69.60;31.33;;;;;;;5.47;100.00;99912.41;4206085;28;20376;-70
2022/11/07 03:13:39;;;;;;;82.47;32.23;;;;;;;5.49;100.00;99902.56;4202231;28;21696;-71
2022/11/07 03:16:07;;;;;;;71.43;30.27;;;;;;;5.54;100.00;99901.34;4196602;28;20234;-71
2022/11/07 03:18:34;;;;;;;69.47;31.23;;;;;;;5.54;100.00;99891.63;4203582;28;20371;-69
2022/11/07 03:21:01;;;;;;;72.33;32.03;;;;;;;5.60;100.00;99891.13;4203559;28;20697;-69
2022/11/07 03:23:28;;;;;;;90.27;35.90;;;;;;;5.69;100.00;99900.09;4199054;28;22345;-70
2022/11/07 03:25:54;;;;;;;94.20;35.07;;;;;;;5.70;100.00;99891.22;4198343;28;21774;-70
2022/11/07 03:28:22;;;;;;;80.67;35.43;;;;;;;5.66;100.00;99889.78;4194067;28;21032;-71
2022/11/07 03:30:48;;;;;;;85.97;35.77;;;;;;;5.68;100.00;99882.56;4198378;28;20232;-69
2022/11/07 03:33:14;;;;;;;87.40;35.67;;;;;;;5.67;100.00;99880.91;4194218;28;20296;-70
2022/11/07 03:35:42;;;;;;;90.03;35.93;;;;;;;5.70;100.00;99885.94;4203900;28;20280;-69
2022/11/07 03:38:09;;;;;;;92.90;35.63;;;;;;;5.68;100.00;99888.69;4193588;28;20269;-70
2022/11/07 03:40:36;;;;;;;84.40;35.60;;;;;;;5.69;100.00;99889.53;4194608;28;22708;-70
2022/11/07 03:43:02;;;;;;;91.60;36.17;;;;;;;5.70;100.00;99880.66;4194114;28;22260;-69
2022/11/07 03:45:30;;;;;;;92.63;36.63;;;;;;;5.63;100.00;99896.16;4184055;28;20240;-70
2022/11/07 03:47:56;;;;;;;86.93;35.17;;;;;;;5.74;100.00;99887.34;4182694;28;20415;-68
2022/11/07 03:50:22;;;;;;;84.60;35.27;;;;;;;5.69;100.00;99889.53;4188078;28;20240;-69
2022/11/07 03:52:49;;;;;;;91.27;35.43;;;;;;;5.74;100.00;99886.53;4180207;28;23892;-68
2022/11/07 03:55:17;;;;;;;99.30;38.27;;;;;;;5.77;100.00;99889.72;4184857;28;21312;-70
2022/11/07 03:57:44;;;;;;;98.67;37.97;;;;;;;5.97;100.00;99887.25;4180160;28;20253;-73
2022/11/07 04:00:11;;;;;;;96.30;37.03;;;;;;;5.92;100.00;99880.53;4185512;28;22028;-76
2022/11/07 04:02:37;;;;;;;102.43;37.30;;;;;;;5.87;100.00;99887.16;4173792;28;20632;-76
2022/11/07 04:05:05;;;;;;;101.60;38.17;;;;;;;5.93;100.00;99894.56;4181401;28;20288;-75
2022/11/07 04:07:31;;;;;;;97.50;37.17;;;;;;;5.95;100.00;99890.03;4202931;28;20236;-74
2022/11/07 04:09:58;;;;;;;101.90;38.07;;;;;;;5.96;100.00;99880.31;4184918;28;22187;-75
2022/11/07 04:17:55;;;;;;;108.63;37.57;;;;;;;5.90;100.00;99877.19;4179201;28;21166;-74
2022/11/07 04:20:22;;;;;;;105.57;38.87;;;;;;;5.95;100.00;99883.91;4180645;28;21107;-78
2022/11/07 04:22:48;;;;;;;113.10;39.87;;;;;;;5.84;100.00;99888.25;4180779;28;21111;-74
2022/11/07 04:25:15;;;;;;;109.63;40.17;;;;;;;5.91;100.00;99886.78;4184059;28;23072;-73
2022/11/07 04:27:41;;;;;;;109.03;38.53;;;;;;;5.99;100.00;99885.31;4181292;28;20248;-73
2022/11/07 04:30:20;;;;;;;105.23;38.07;;;;;;;6.01;100.00;99884.22;4189791;28;20238;-77
2022/11/07 04:32:54;;;;;;;99.23;39.00;;;;;;;5.93;100.00;99881.38;4186756;28;21144;-74
2022/11/07 04:35:23;;;;;;;106.43;38.90;;;;;;;5.97;100.00;99876.69;4184598;28;20368;-78
2022/11/07 04:37:50;;;;;;;106.80;38.50;;;;;;;5.95;100.00;99878.63;4192788;28;20242;-73
2022/11/07 04:40:17;;;;;;;98.53;37.17;;;;;;;5.99;100.00;99872.13;4188460;28;20261;-72
2022/11/07 04:42:44;;;;;;;109.37;38.90;;;;;;;5.86;100.00;99865.19;4187049;28;20494;-74
2022/11/07 04:45:11;;;;;;;103.03;39.27;;;;;;;5.83;100.00;99869.88;4186555;28;20232;-72
2022/11/07 04:47:38;;;;;;;105.83;37.47;;;;;;;5.98;100.00;99870.47;4190283;28;23627;-72
2022/11/07 04:50:09;;;;;;;111.33;38.97;;;;;;;6.03;100.00;99870.91;4182327;28;23613;-72
2022/11/07 04:52:35;;;;;;;108.23;38.10;;;;;;;6.04;100.00;99864.63;4184178;28;20302;-73
2022/11/07 04:55:02;;;;;;;95.23;37.43;;;;;;;6.04;100.00;99862.84;4184008;28;27023;-77
2022/11/07 04:57:29;;;;;;;104.40;36.73;;;;;;;6.04;100.00;99856.72;4165148;28;20479;-76
2022/11/07 04:59:55;;;;;;;108.43;38.07;;;;;;;6.00;100.00;99850.88;4177185;28;20392;-76
2022/11/07 05:02:26;;;;;;;99.60;37.10;;;;;;;5.99;100.00;99858.91;4172517;28;22864;-75
2022/11/07 05:04:53;;;;;;;94.93;35.83;;;;;;;6.06;100.00;99844.22;4186897;28;20240;-75
2022/11/07 05:07:20;;;;;;;104.73;36.70;;;;;;;6.04;100.00;99840.88;4181894;28;26384;-75
2022/11/07 05:09:46;;;;;;;96.47;36.03;;;;;;;5.95;100.00;99836.38;4179572;28;20258;-75
2022/11/07 05:12:13;;;;;;;102.50;36.10;;;;;;;6.02;100.00;99835.72;4185132;28;21229;-74
2022/11/07 05:14:39;;;;;;;98.33;36.70;;;;;;;6.14;100.00;99839.13;4179351;28;20237;-72
2022/11/07 05:17:06;;;;;;;102.03;36.63;;;;;;;6.15;100.00;99837.31;4182241;28;21393;-74
2022/11/07 05:19:33;;;;;;;101.73;35.97;;;;;;;6.19;100.00;99841.38;4181123;28;20238;-74
2022/11/07 05:24:45;;;;;;;106.23;36.43;;;;;;;6.14;100.00;99825.94;4186898;28;20233;-79
2022/11/07 05:27:18;;;;;;;98.87;34.77;;;;;;;6.17;100.00;99841.50;4182026;28;20280;-74
2022/11/07 05:29:45;;;;;;;99.53;34.80;;;;;;;6.26;100.00;99830.16;4172703;28;20241;-75
2022/11/07 05:32:11;;;;;;;104.77;36.80;;;;;;;6.30;100.00;99828.91;4180664;28;20378;-74
2022/11/07 05:34:38;;;;;;;107.90;36.93;;;;;;;6.21;100.00;99828.88;4178273;28;22271;-74
2022/11/07 05:37:08;;;;;;;101.43;34.80;;;;;;;6.35;100.00;99825.88;4183466;28;20880;-76
2022/11/07 05:39:35;;;;;;;101.13;36.03;;;;;;;6.31;100.00;99825.28;4169089;28;20528;-73
2022/11/07 05:42:02;;;;;;;93.97;34.20;;;;;;;6.38;100.00;99827.41;4174175;28;20642;-77
2022/11/07 05:44:29;;;;;;;94.17;34.53;;;;;;;6.43;100.00;99833.13;4183482;28;20312;-73
2022/11/07 05:46:56;;;;;;;101.97;34.53;;;;;;;6.36;100.00;99822.25;4181657;28;20227;-74
2022/11/07 05:49:23;;;;;;;96.90;35.07;;;;;;;6.36;100.00;99819.63;4179040;28;20297;-70
2022/11/07 05:51:50;;;;;;;96.03;33.00;;;;;;;6.47;100.00;99823.97;4180795;28;20341;-75
2022/11/07 05:54:16;;;;;;;95.03;33.47;;;;;;;6.53;100.00;99815.50;4176746;28;21620;-71
2022/11/07 05:56:43;;;;;;;97.30;35.03;;;;;;;6.48;100.00;99823.81;4195579;28;20243;-72
2022/11/07 05:59:10;;;;;;;92.03;33.97;;;;;;;6.67;100.00;99831.00;4173525;28;21681;-73
2022/11/07 06:01:36;;;;;;;93.13;32.37;;;;;;;6.67;100.00;99838.94;4171240;28;20765;-73
2022/11/07 06:04:04;;;;;;;85.97;32.43;;;;;;;6.78;100.00;99831.84;4177971;28;20316;-77
2022/11/07 06:06:30;;;;;;;88.40;32.43;;;;;;;6.69;100.00;99836.13;4176377;28;20744;-75
2022/11/07 06:08:57;;;;;;;80.70;31.00;;;;;;;6.79;100.00;99841.44;4181547;28;21588;-72
2022/11/07 06:11:24;;;;;;;90.97;31.70;;;;;;;6.81;100.00;99839.50;4183066;28;20423;-73
2022/11/07 06:13:52;;;;;;;82.60;32.00;;;;;;;6.79;100.00;99846.75;4182241;28;20246;-72
2022/11/07 06:16:18;;;;;;;73.63;29.97;;;;;;;6.88;100.00;99844.16;4208786;28;20230;-74
2022/11/07 06:18:45;;;;;;;82.00;30.67;;;;;;;6.90;100.00;99855.41;4204517;28;20248;-69
2022/11/07 06:21:12;;;;;;;74.97;30.03;;;;;;;6.93;100.00;99857.78;4219968;28;21919;-73
2022/11/07 06:23:39;;;;;;;70.50;30.30;;;;;;;7.01;100.00;99850.97;4191953;28;20667;-69
2022/11/07 06:26:06;;;;;;;79.53;28.37;;;;;;;7.00;100.00;99852.81;4204901;28;20245;-74
2022/11/07 06:28:32;;;;;;;71.13;30.00;;;;;;;7.06;100.00;99856.69;4200910;28;20709;-71
2022/11/07 06:31:00;;;;;;;72.07;27.93;;;;;;;7.08;100.00;99862.69;4210353;28;21143;-71
2022/11/07 06:33:28;;;;;;;73.83;29.50;;;;;;;7.14;100.00;99852.41;4201427;28;20272;-68
2022/11/07 06:35:55;;;;;;;76.50;29.47;;;;;;;7.13;100.00;99850.72;4177864;28;22919;-73
2022/11/07 06:38:23;;;;;;;69.77;27.20;;;;;;;7.17;100.00;99860.06;4183724;28;20235;-69
2022/11/07 06:40:50;;;;;;;67.03;28.37;;;;;;;7.10;100.00;99856.28;4214297;28;20249;-72
2022/11/07 06:43:18;;;;;;;69.87;28.90;;;;;;;7.15;100.00;99854.06;4220509;28;20243;-72
2022/11/07 06:45:46;;;;;;;65.83;28.37;;;;;;;7.17;100.00;99844.19;4183511;28;20238;-74
2022/11/07 06:48:13;;;;;;;67.53;27.63;;;;;;;7.21;100.00;99843.91;4189251;28;20236;-74
2022/11/07 06:50:40;;;;;;;69.13;28.40;;;;;;;7.23;100.00;99841.94;4205328;28;22125;-74
2022/11/07 06:53:09;;;;;;;63.00;26.63;;;;;;;7.26;100.00;99844.31;4176424;28;20494;-73
2022/11/07 06:55:37;;;;;;;62.93;28.17;;;;;;;7.28;100.00;99847.66;4200464;28;20323;-70
2022/11/07 06:58:04;;;;;;;59.40;26.40;;;;;;;7.28;100.00;99850.31;4189925;28;20238;-72
2022/11/07 07:00:32;;;;;;;67.67;28.60;;;;;;;7.32;100.00;99851.72;4168213;28;20847;-73
2022/11/07 07:02:59;;;;;;;65.20;26.40;;;;;;;7.40;100.00;99847.41;4188762;28;20253;-68
2022/11/07 07:05:26;;;;;;;64.17;27.97;;;;;;;7.34;100.00;99842.66;4170180;28;20238;-72
2022/11/07 07:07:54;;;;;;;57.50;26.80;;;;;;;7.48;100.00;99853.81;4193465;28;20249;-71
2022/11/07 07:10:23;;;;;;;61.40;28.20;;;;;;;7.58;100.00;99858.09;4182754;28;21260;-70
2022/11/07 07:12:50;;;;;;;67.67;28.00;;;;;;;7.58;100.00;99866.06;4192426;28;21568;-72
2022/11/07 07:15:17;;;;;;;61.10;27.20;;;;;;;7.61;100.00;99854.38;4178411;28;20664;-68
2022/11/07 07:17:43;;;;;;;65.33;27.23;;;;;;;7.60;100.00;99850.88;4187852;28;22822;-72
2022/11/07 07:20:10;;;;;;;59.83;25.83;;;;;;;7.64;100.00;99853.25;4184477;28;20238;-72
2022/11/07 07:22:36;;;;;;;61.67;26.37;;;;;;;7.73;100.00;99857.72;4180064;28;20996;-68
2022/11/07 07:25:03;;;;;;;57.17;26.27;;;;;;;7.82;100.00;99856.88;4162421;28;21356;-71
2022/11/07 07:27:30;;;;;;;66.43;27.03;;;;;;;7.85;100.00;99853.94;4190897;28;20231;-71
2022/11/07 07:29:56;;;;;;;52.43;25.70;;;;;;;7.87;100.00;99856.44;4177769;28;20290;-71
2022/11/07 07:32:24;;;;;;;62.90;25.37;;;;;;;7.93;100.00;99855.84;4179422;28;20671;-69
2022/11/07 07:34:51;;;;;;;55.30;26.50;;;;;;;7.86;100.00;99858.22;4193145;28;21759;-71
2022/11/07 07:37:17;;;;;;;60.90;25.57;;;;;;;7.93;100.00;99854.03;4183573;28;20265;-72
2022/11/07 07:39:44;;;;;;;53.57;24.50;;;;;;;8.02;100.00;99858.47;4189668;28;20321;-72
2022/11/07 07:42:10;;;;;;;54.60;24.53;;;;;;;7.94;100.00;99853.06;4185628;28;20301;-70
2022/11/07 07:44:37;;;;;;;60.23;25.90;;;;;;;7.97;100.00;99839.53;4201968;28;20260;-70
2022/11/07 07:47:04;;;;;;;56.17;23.63;;;;;;;8.04;100.00;99851.22;4192875;28;20248;-68
2022/11/07 07:49:36;;;;;;;56.30;24.97;;;;;;;8.06;100.00;99844.97;4162645;28;20241;-72
2022/11/07 07:52:03;;;;;;;54.37;24.87;;;;;;;8.06;100.00;99852.91;4168254;28;20234;-70
2022/11/07 07:54:30;;;;;;;51.37;23.33;;;;;;;8.15;100.00;99846.75;4187022;28;20249;-68
2022/11/07 07:56:56;;;;;;;54.53;23.77;;;;;;;8.20;100.00;99857.75;4173236;28;20681;-74
2022/11/07 07:59:23;;;;;;;44.97;22.43;;;;;;;8.24;100.00;99856.47;4176765;28;21173;-69
2022/11/07 08:01:49;;;;;;;56.37;22.63;;;;;;;8.12;100.00;99852.31;4211589;28;22567;-71
2022/11/07 08:04:22;;;;;;;48.23;23.33;;;;;;;8.23;100.00;99849.50;4182152;28;20545;-69
2022/11/07 08:06:48;;;;;;;46.30;23.17;;;;;;;8.25;100.00;99852.84;4181244;28;20234;-71
2022/11/07 08:09:15;;;;;;;45.30;21.70;;;;;;;8.34;100.00;99846.69;4185265;28;20579;-72
2022/11/07 08:11:41;;;;;;;47.47;22.93;;;;;;;8.21;100.00;99859.41;4201770;28;22917;-70
2022/11/07 08:14:07;;;;;;;50.13;21.70;;;;;;;8.24;100.00;99846.72;4195597;28;21696;-69
2022/11/07 08:16:34;;;;;;;49.80;22.43;;;;;;;8.30;100.00;99850.59;4206693;28;20237;-72
2022/11/07 08:19:00;;;;;;;51.73;23.67;;;;;;;8.33;100.00;99852.94;4189622;28;20238;-70
2022/11/07 08:21:28;;;;;;;54.37;22.90;;;;;;;8.42;100.00;99843.34;4176420;28;20308;-71
2022/11/07 08:23:55;;;;;;;46.93;22.23;;;;;;;8.45;100.00;99848.34;4175494;28;21912;-69
2022/11/07 08:26:22;;;;;;;45.97;21.93;;;;;;;8.45;100.00;99851.84;4183973;28;20244;-72
2022/11/07 08:28:48;;;;;;;49.53;22.13;;;;;;;8.55;100.00;99854.44;4196568;28;21814;-73
2022/11/07 08:31:15;;;;;;;44.00;21.93;;;;;;;8.53;100.00;99847.63;4167004;28;23163;-75
2022/11/07 08:33:41;;;;;;;45.50;21.77;;;;;;;8.61;100.00;99845.06;4182020;28;21762;-74
2022/11/07 08:36:08;;;;;;;44.93;21.63;;;;;;;8.76;100.00;99845.44;4193073;28;20228;-72
2022/11/07 08:38:35;;;;;;;45.87;21.70;;;;;;;8.75;100.00;99846.41;4206275;28;20237;-72
2022/11/07 08:41:03;;;;;;;41.27;20.47;;;;;;;8.93;100.00;99844.63;4206388;28;21057;-73
2022/11/07 08:43:29;;;;;;;45.33;21.20;;;;;;;9.22;100.00;99841.75;4174446;28;20311;-72
2022/11/07 08:45:56;;;;;;;52.33;26.03;;;;;;;10.22;100.00;99846.88;4179471;28;20310;-74
2022/11/07 08:48:23;;;;;;;34.60;18.13;;;;;;;10.54;100.00;99840.94;4206822;28;21575;-73
2022/11/07 08:50:51;;;;;;;39.23;18.00;;;;;;;10.83;100.00;99851.19;4189738;28;20240;-75
2022/11/07 08:53:18;;;;;;;37.73;19.03;;;;;;;10.93;100.00;99846.56;4198774;28;20240;-73
2022/11/07 08:55:45;;;;;;;37.97;17.90;;;;;;;11.00;100.00;99844.06;4217796;28;20234;-72
2022/11/07 08:58:13;;;;;;;35.77;17.30;;;;;;;10.95;100.00;99849.88;4225590;28;23534;-72
2022/11/07 09:00:40;;;;;;;37.97;17.67;;;;;;;11.33;100.00;99845.00;4207308;28;20229;-75
2022/11/07 09:03:07;;;;;;;34.60;16.37;;;;;;;11.96;96.06;99845.34;4240331;28;20241;-74
2022/11/07 09:05:56;;;;;;;32.27;16.67;;;;;;;12.99;90.35;99853.34;4229552;28;20772;-73
2022/11/07 09:08:23;;;;;;;32.93;15.53;;;;;;;13.39;86.75;99848.84;4202991;28;20240;-73
2022/11/07 09:10:50;;;;;;;37.67;16.97;;;;;;;12.91;87.39;99850.75;4230075;28;23275;-73
2022/11/07 09:13:19;;;;;;;27.70;15.23;;;;;;;12.22;90.36;99843.31;4234748;28;22206;-73
2022/11/07 09:15:46;;;;;;;32.90;16.70;;;;;;;12.01;92.46;99843.00;4240881;28;20832;-72
2022/11/07 09:18:17;;;;;;;30.73;16.27;;;;;;;11.89;94.20;99841.69;4220265;28;20295;-73
2022/11/07 09:20:44;;;;;;;33.37;16.40;;;;;;;12.03;93.19;99836.53;4215427;28;20378;-73
2022/11/07 09:23:11;;;;;;;30.13;15.60;;;;;;;12.26;92.44;99843.78;4212074;28;22112;-71
2022/11/07 09:25:37;;;;;;;33.20;16.13;;;;;;;12.27;91.45;99833.94;4192023;28;20670;-74
2022/11/07 09:28:04;;;;;;;33.03;15.83;;;;;;;12.19;92.29;99835.63;4217733;28;20938;-72
2022/11/07 09:30:31;;;;;;;29.87;14.00;;;;;;;11.86;92.98;99828.69;4236589;28;20241;-75
2022/11/07 09:32:57;;;;;;;28.77;15.20;;;;;;;11.56;95.06;99829.16;4198220;28;20702;-51
2022/11/07 09:35:24;;;;;;;27.13;15.33;;;;;;;11.51;96.22;99828.84;4188874;28;20420;-41
2022/11/07 09:37:51;;;;;;;30.80;14.93;;;;;;;11.68;98.16;99835.00;4211223;28;20236;-43
2022/11/07 09:40:42;;;;;;;31.53;14.17;;;;;;;11.65;95.45;99830.00;4196555;28;20233;-75
2022/11/07 09:43:28;;;;;;;32.60;14.40;;;;;;;11.36;97.69;99828.69;4193589;28;20234;-71
2022/11/07 09:46:03;;;;;;;30.67;14.37;;;;;;;11.24;97.40;99819.34;4192255;28;20308;-75
2022/11/07 09:48:36;;;;;;;30.10;13.87;;;;;;;11.07;98.26;99812.31;4184129;28;20323;-73
2022/11/07 09:51:03;;;;;;;30.20;14.40;;;;;;;11.08;98.69;99814.00;4184461;28;20238;-72
2022/11/07 09:53:42;;;;;;;25.43;13.90;;;;;;;11.12;98.34;99804.66;4208244;28;20237;-72
2022/11/07 09:56:11;;;;;;;28.47;13.37;;;;;;;11.18;97.26;99804.00;4188446;28;20686;-74
2022/11/07 09:58:43;;;;;;;26.40;12.73;;;;;;;11.18;97.02;99804.00;4194992;28;20239;-71
2022/11/07 10:01:13;;;;;;;23.80;11.23;;;;;;;11.22;94.48;99805.34;4204480;28;20324;-72
2022/11/07 10:03:40;;;;;;;24.17;12.07;;;;;;;11.20;94.57;99799.34;4200011;28;21549;-72
2022/11/07 10:06:44;;;;;;;27.63;11.83;;;;;;;11.23;92.62;99803.50;4194001;28;21217;-72
2022/11/07 10:09:54;;;;;;;26.90;10.87;;;;;;;11.25;91.37;99805.00;4186977;28;20237;-72
2022/11/07 10:12:40;;;;;;;23.33;11.10;;;;;;;11.20;90.79;99797.53;4188134;28;20233;-72
2022/11/07 10:15:31;;;;;;;25.83;11.30;;;;;;;11.27;90.90;99792.38;4197887;28;20316;-72
2022/11/07 10:18:15;;;;;;;26.23;10.90;;;;;;;11.32;90.02;99790.03;4168615;28;20226;-73
2022/11/07 10:21:23;;;;;;;21.53;10.73;;;;;;;11.29;89.17;99800.22;4172525;28;20364;-71
2022/11/07 10:24:16;;;;;;;22.80;10.97;;;;;;;11.41;88.79;99797.03;4186108;28;20237;-73
2022/11/07 10:26:44;;;;;;;21.27;10.43;;;;;;;11.26;88.88;99790.72;4206409;28;20231;-72
2022/11/07 10:29:17;;;;;;;24.03;11.10;;;;;;;11.28;88.55;99793.19;4174572;28;20240;-72
2022/11/07 10:31:55;;;;;;;23.57;11.50;;;;;;;11.32;89.68;99799.88;4209057;28;22010;-70
2022/11/07 10:34:35;;;;;;;20.97;11.20;;;;;;;11.21;89.61;99798.34;4213651;28;20535;-73
2022/11/07 10:37:02;;;;;;;24.23;11.57;;;;;;;11.28;89.34;99788.69;4186339;28;20304;-71
2022/11/07 10:39:30;;;;;;;22.57;11.03;;;;;;;11.30;89.14;99793.88;4174570;28;21740;-69
2022/11/07 10:42:02;;;;;;;23.47;11.27;;;;;;;11.22;89.25;99781.38;4197306;28;21782;-68
2022/11/07 10:44:29;;;;;;;25.80;11.30;;;;;;;11.13;88.33;99779.72;4215979;28;22571;-73
2022/11/07 10:46:56;;;;;;;20.87;10.50;;;;;;;11.10;88.46;99780.06;4195092;28;20251;-66
2022/11/07 10:49:28;;;;;;;23.20;11.20;;;;;;;11.15;88.63;99777.72;4189399;28;20362;-72
2022/11/07 10:52:06;;;;;;;23.50;10.53;;;;;;;11.13;88.13;99780.53;4220011;28;20236;-71
2022/11/07 10:54:32;;;;;;;25.43;10.60;;;;;;;11.23;88.64;99779.53;4190144;28;20236;-77
2022/11/07 10:57:08;;;;;;;25.13;10.60;;;;;;;11.23;87.72;99764.41;4199695;28;20228;-70
2022/11/07 11:00:06;;;;;;;24.07;10.43;;;;;;;11.22;87.12;99770.72;4236524;28;21229;-72
2022/11/07 11:02:46;;;;;;;21.00;11.27;;;;;;;11.31;87.06;99779.56;4207576;28;20909;-69
2022/11/07 11:05:25;;;;;;;24.00;11.00;;;;;;;11.38;86.11;99781.38;4206656;28;20293;-71
2022/11/07 11:07:54;;;;;;;21.17;10.83;;;;;;;11.38;86.28;99777.91;4171871;28;20239;-69
2022/11/07 11:10:29;;;;;;;24.30;10.53;;;;;;;11.28;85.82;99782.53;4179426;28;21562;-69
2022/11/07 11:12:56;;;;;;;17.17;10.07;;;;;;;11.10;86.12;99774.72;4242463;28;21696;-67
2022/11/07 11:15:25;;;;;;;20.63;9.90;;;;;;;11.16;85.38;99785.53;4223166;28;22686;-70
2022/11/07 11:18:04;;;;;;;23.73;9.67;;;;;;;11.10;84.75;99780.06;4195820;28;20240;-68
2022/11/07 11:20:35;;;;;;;22.63;9.30;;;;;;;11.01;83.76;99771.22;4209242;28;21498;-70
2022/11/07 11:23:04;;;;;;;24.23;9.93;;;;;;;10.92;86.68;99783.66;4201162;28;20233;-71
2022/11/07 11:25:42;;;;;;;22.73;10.43;;;;;;;10.70;86.87;99778.94;4201541;28;20241;-69
2022/11/07 11:28:14;;;;;;;18.73;10.07;;;;;;;10.77;86.68;99787.97;4188710;28;20357;-69
2022/11/07 11:30:42;;;;;;;23.70;10.53;;;;;;;10.46;86.74;99788.50;4188976;28;20622;-74
2022/11/07 11:33:16;;;;;;;19.20;10.10;;;;;;;10.90;87.38;99784.81;4185696;28;22139;-58